Terminal Aerodrome Forecast
Issued by NWS Cleveland, OH

Home | Current Version | Previous Version | Graphics & Text | Print | Product List | Glossary On
Versions: 1 2 3 4 5 6 7 8 9 10 11 12 13 14 15 16 17 18 19
000
FTUS41 KCLE 041600 AAB
TAFCAK
TAF AMD
KCAK 041610Z 0416/0512 25015G25KT P6SM SCT050 BKN250
     FM042200 22012G20KT P6SM VCTS OVC050CB
      TEMPO 0500/0502 1 1/2SM -TSRA BR BKN025CB OVC035
     FM050300 22008KT P6SM VCSH SCT025 OVC035=

USA.gov is the U.S. government's official web portal to all federal, state and local government web resources and services.